Time;durP1;ratioP1;P1;durP2;ratioP2;P2;SDS_P1;SDS_P2;PMS_P1;PMS_P2;Temp;Humidity;BMP_temperature;BMP_pressure;BME280_temperature;BME280_humidity;BME280_pressure;Samples;Min_cycle;Max_cycle;Signal;HPM_P1;HPM_P2
2022/06/21 00:02:19;;;;;;;7.15;2.38;;;17.00;61.20;;;;;;5044585;28;20458;-69
2022/06/21 00:04:45;;;;;;;4.93;2.40;;;16.90;61.30;;;;;;5043542;28;20331;-69
2022/06/21 00:07:31;;;;;;;6.85;2.10;;;16.90;61.40;;;;;;5028904;28;20040;-69
2022/06/21 00:09:57;;;;;;;8.05;2.53;;;16.90;61.40;;;;;;5057016;28;20119;-69
2022/06/21 00:12:23;;;;;;;6.03;2.20;;;16.80;61.40;;;;;;5052811;28;20029;-69
2022/06/21 00:14:49;;;;;;;6.60;2.20;;;16.80;61.50;;;;;;5041876;28;20041;-69
2022/06/21 00:17:17;;;;;;;5.30;2.35;;;16.80;62.40;;;;;;5039383;28;20029;-70
2022/06/21 00:19:44;;;;;;;6.57;2.25;;;16.80;61.90;;;;;;5033280;28;20450;-69
2022/06/21 00:22:14;;;;;;;7.32;2.70;;;16.70;61.90;;;;;;5045226;28;20148;-69
2022/06/21 00:24:41;;;;;;;7.20;2.47;;;16.70;62.10;;;;;;5049581;28;20450;-69
2022/06/21 00:27:21;;;;;;;6.53;2.17;;;16.60;62.10;;;;;;5042006;28;20094;-69
2022/06/21 00:29:47;;;;;;;6.60;2.40;;;16.70;62.30;;;;;;5056371;28;20032;-69
2022/06/21 00:32:15;;;;;;;6.93;2.22;;;16.60;62.30;;;;;;5045412;28;20034;-69
2022/06/21 00:34:42;;;;;;;5.70;2.08;;;16.60;62.40;;;;;;5040935;28;20029;-69
2022/06/21 00:37:20;;;;;;;6.22;2.42;;;16.60;62.40;;;;;;5031865;28;20037;-69
2022/06/21 00:39:46;;;;;;;6.68;2.10;;;16.60;62.50;;;;;;5055360;28;20037;-69
2022/06/21 00:42:26;;;;;;;7.95;2.50;;;16.60;62.60;;;;;;5037118;28;20024;-69
2022/06/21 00:45:11;;;;;;;5.95;2.05;;;16.60;62.70;;;;;;5052670;28;20098;-69
2022/06/21 00:47:45;;;;;;;6.03;2.42;;;16.50;62.70;;;;;;5045463;28;20052;-69
2022/06/21 00:50:20;;;;;;;5.70;1.92;;;16.50;62.80;;;;;;5056213;28;20029;-69
2022/06/21 00:53:07;;;;;;;5.68;1.90;;;16.50;62.90;;;;;;5041031;28;20445;-69
2022/06/21 00:55:42;;;;;;;5.50;2.35;;;16.40;63.00;;;;;;5044208;28;20116;-69
2022/06/21 00:58:14;;;;;;;5.03;2.10;;;16.40;63.10;;;;;;5043446;28;20045;-69
2022/06/21 01:00:57;;;;;;;;;;;16.40;63.10;;;;;;5056205;28;20043;-68
2022/06/21 01:03:33;;;;;;;8.10;1.92;;;16.40;63.10;;;;;;5039249;28;20199;-69
2022/06/21 01:06:34;;;;;;;5.68;2.38;;;16.30;63.20;;;;;;5049445;28;20055;-70
2022/06/21 01:09:07;;;;;;;4.65;2.00;;;16.30;63.30;;;;;;5032075;28;20348;-71
2022/06/21 01:11:45;;;;;;;6.63;2.25;;;16.20;63.30;;;;;;5051290;28;20040;-70
2022/06/21 01:14:12;;;;;;;7.90;2.15;;;16.30;63.50;;;;;;5047996;28;20049;-69
2022/06/21 01:16:39;;;;;;;6.85;2.25;;;16.20;63.50;;;;;;5040751;28;21228;-69
2022/06/21 01:19:12;;;;;;;6.85;2.47;;;16.20;63.60;;;;;;5053604;28;20056;-70
2022/06/21 01:21:39;;;;;;;6.70;2.58;;;16.20;63.60;;;;;;5049809;28;20460;-70
2022/06/21 01:24:16;;;;;;;7.47;2.53;;;16.20;63.60;;;;;;5051205;28;20025;-70
2022/06/21 01:26:56;;;;;;;8.25;2.85;;;16.20;63.70;;;;;;5036764;28;20090;-69
2022/06/21 01:29:26;;;;;;;7.38;2.65;;;16.20;63.80;;;;;;5048811;28;20028;-69
2022/06/21 01:31:54;;;;;;;5.40;2.15;;;16.10;63.70;;;;;;5046674;28;20030;-70
2022/06/21 01:34:22;;;;;;;6.97;2.40;;;16.10;63.70;;;;;;5039061;28;20116;-69
2022/06/21 01:37:07;;;;;;;6.10;2.30;;;16.10;63.70;;;;;;5040581;28;20042;-69
2022/06/21 01:39:41;;;;;;;5.28;2.03;;;16.10;63.80;;;;;;5050929;28;20151;-69
2022/06/21 01:42:16;;;;;;;5.78;2.38;;;16.10;63.90;;;;;;5051200;28;20028;-69
2022/06/21 01:44:47;;;;;;;6.43;2.33;;;16.00;64.00;;;;;;5049324;28;20022;-69
2022/06/21 01:47:17;;;;;;;5.75;2.25;;;16.00;64.00;;;;;;5037333;28;20061;-69
2022/06/21 01:49:53;;;;;;;7.03;2.17;;;16.00;64.10;;;;;;5048724;28;20029;-69
2022/06/21 01:52:22;;;;;;;6.85;2.58;;;15.90;64.20;;;;;;5040107;28;20025;-69
2022/06/21 01:54:56;;;;;;;7.93;2.58;;;15.90;64.20;;;;;;5052095;28;20040;-69
2022/06/21 01:57:22;;;;;;;5.95;2.33;;;15.90;64.30;;;;;;5036060;28;20037;-69
2022/06/21 01:59:51;;;;;;;5.85;2.05;;;15.80;64.40;;;;;;5046739;28;20446;-69
2022/06/21 02:02:28;;;;;;;5.50;2.60;;;15.80;64.50;;;;;;5031812;28;20028;-69
2022/06/21 02:05:12;;;;;;;7.18;2.40;;;15.80;64.50;;;;;;5046430;28;20025;-69
2022/06/21 02:07:49;;;;;;;5.45;2.30;;;15.80;64.50;;;;;;5051443;28;20029;-69
2022/06/21 02:10:45;;;;;;;6.72;2.47;;;15.80;64.60;;;;;;5031793;28;20017;-69
2022/06/21 02:13:19;;;;;;;4.80;2.03;;;15.80;64.60;;;;;;5042941;28;20481;-69
2022/06/21 02:15:52;;;;;;;8.02;2.38;;;15.70;64.70;;;;;;5046623;28;20033;-69
2022/06/21 02:18:20;;;;;;;6.30;2.60;;;15.70;64.80;;;;;;5049256;28;20043;-68
2022/06/21 02:21:05;;;;;;;8.38;2.60;;;15.70;64.80;;;;;;5049382;28;20112;-69
2022/06/21 02:23:30;;;;;;;7.25;2.25;;;15.70;64.90;;;;;;5042549;28;20029;-68
2022/06/21 02:25:58;;;;;;;7.97;2.70;;;15.60;64.90;;;;;;5054179;28;20051;-69
2022/06/21 02:28:25;;;;;;;4.88;1.95;;;15.60;65.00;;;;;;5044162;28;20030;-69
2022/06/21 02:30:52;;;;;;;6.43;2.30;;;15.60;65.10;;;;;;5039976;28;20020;-69
2022/06/21 02:33:21;;;;;;;6.60;2.22;;;15.60;65.10;;;;;;5047934;28;20029;-68
2022/06/21 02:36:01;;;;;;;6.55;2.20;;;15.60;65.20;;;;;;5032708;28;20115;-69
2022/06/21 02:38:37;;;;;;;7.82;2.75;;;15.50;65.20;;;;;;5043381;28;20095;-68
2022/06/21 02:41:18;;;;;;;6.38;2.05;;;15.50;65.30;;;;;;5039032;28;20044;-69
2022/06/21 02:43:55;;;;;;;5.20;2.25;;;15.50;65.40;;;;;;5041373;28;20124;-68
2022/06/21 02:46:28;;;;;;;8.18;2.90;;;15.50;65.50;;;;;;5052690;28;20037;-69
2022/06/21 02:49:05;;;;;;;6.57;2.65;;;15.50;65.60;;;;;;5042967;28;20043;-68
2022/06/21 02:51:39;;;;;;;5.75;2.30;;;15.40;65.60;;;;;;5048209;28;20496;-69
2022/06/21 02:54:19;;;;;;;7.25;3.03;;;15.40;65.70;;;;;;5021749;28;20083;-69
2022/06/21 02:56:56;;;;;;;6.03;2.40;;;15.40;65.70;;;;;;5041504;28;20415;-68
2022/06/21 02:59:22;;;;;;;6.07;2.42;;;15.40;65.80;;;;;;5042508;28;20749;-68
2022/06/21 03:01:57;;;;;;;6.10;2.58;;;15.40;65.80;;;;;;5042284;28;20021;-68
2022/06/21 03:04:32;;;;;;;6.70;2.83;;;15.40;65.80;;;;;;5022281;28;20087;-68
2022/06/21 03:06:58;;;;;;;7.60;2.80;;;15.40;65.90;;;;;;5026069;28;20128;-68
2022/06/21 03:09:24;;;;;;;6.55;2.70;;;15.40;66.00;;;;;;5045387;28;20021;-68
2022/06/21 03:11:53;;;;;;;7.32;2.80;;;15.40;66.00;;;;;;5043003;28;20032;-68
2022/06/21 03:14:23;;;;;;;6.95;2.60;;;15.40;66.10;;;;;;5038808;28;20044;-68
2022/06/21 03:16:50;;;;;;;8.10;3.08;;;15.30;66.10;;;;;;5045978;28;20029;-68
2022/06/21 03:19:27;;;;;;;9.20;2.75;;;15.30;66.20;;;;;;5046169;28;20064;-69
2022/06/21 03:21:54;;;;;;;7.57;2.78;;;15.30;66.30;;;;;;5022522;28;20017;-69
2022/06/21 03:24:22;;;;;;;8.73;3.10;;;15.30;66.30;;;;;;5036211;28;20030;-69
2022/06/21 03:27:06;;;;;;;5.45;2.50;;;15.30;66.30;;;;;;5040247;28;20127;-69
2022/06/21 03:29:32;;;;;;;8.35;2.45;;;15.30;66.40;;;;;;5042936;28;20029;-69
2022/06/21 03:31:59;;;;;;;8.55;3.00;;;15.30;66.50;;;;;;5047035;28;20106;-69
2022/06/21 03:34:26;;;;;;;6.07;2.58;;;15.30;66.50;;;;;;5046689;28;20025;-69
2022/06/21 03:36:52;;;;;;;7.07;2.80;;;15.30;66.60;;;;;;5044775;28;20017;-69
2022/06/21 03:41:42;;;;;;;5.18;2.10;;;15.30;66.70;;;;;;5047866;28;20076;-71
2022/06/21 03:42:13;;;;;;;6.25;2.30;;;15.20;66.70;;;;;;5051554;28;20101;-68
2022/06/21 03:44:44;;;;;;;6.82;2.60;;;15.20;66.70;;;;;;5045802;28;20025;-68
2022/06/21 03:47:14;;;;;;;;;;;15.20;66.70;;;;;;5040058;28;20029;-69
2022/06/21 03:49:52;;;;;;;7.35;2.33;;;15.20;66.50;;;;;;5044952;28;19913;-68
2022/06/21 03:52:41;;;;;;;6.35;2.20;;;15.20;66.70;;;;;;5055070;28;20052;-70
2022/06/21 03:55:30;;;;;;;5.95;2.40;;;15.20;66.70;;;;;;5061448;28;20025;-67
2022/06/21 03:58:22;;;;;;;7.15;2.42;;;15.20;66.70;;;;;;5028790;28;20041;-65
2022/06/21 04:01:02;;;;;;;6.78;2.70;;;15.20;66.80;;;;;;5049513;28;20059;-66
2022/06/21 04:03:40;;;;;;;5.28;2.15;;;15.20;66.80;;;;;;5051005;28;20113;-65
2022/06/21 04:06:26;;;;;;;6.60;2.67;;;15.20;66.90;;;;;;5051211;28;20025;-65
2022/06/21 04:09:07;;;;;;;7.18;2.38;;;15.20;67.00;;;;;;5051807;28;20033;-65
2022/06/21 04:12:01;;;;;;;6.80;2.60;;;15.20;67.00;;;;;;5046422;28;20029;-66
2022/06/21 04:14:49;;;;;;;7.90;2.75;;;15.20;67.10;;;;;;5049700;28;20080;-66
2022/06/21 04:17:27;;;;;;;8.23;2.75;;;15.20;67.20;;;;;;5049697;28;20053;-66
2022/06/21 04:20:16;;;;;;;5.43;2.15;;;15.20;67.30;;;;;;5039252;28;20116;-66
2022/06/21 04:23:23;;;;;;;6.72;2.60;;;15.30;67.40;;;;;;5051031;28;20394;-66
2022/06/21 04:26:07;;;;;;;6.80;2.40;;;15.30;67.40;;;;;;5011067;28;20104;-66
2022/06/21 04:28:44;;;;;;;7.70;2.60;;;15.20;67.40;;;;;;5018688;28;20054;-66
2022/06/21 04:31:44;;;;;;;6.28;2.58;;;15.30;67.50;;;;;;5012121;28;20103;-66
2022/06/21 04:34:19;;;;;;;7.72;2.50;;;15.30;67.50;;;;;;5003575;28;20360;-66
2022/06/21 04:36:51;;;;;;;7.68;2.83;;;15.40;67.60;;;;;;5008976;28;20072;-66
2022/06/21 04:39:38;;;;;;;6.75;2.70;;;15.40;67.70;;;;;;5008677;28;20041;-66
2022/06/21 04:42:17;;;;;;;8.68;2.58;;;15.40;67.70;;;;;;5024001;28;20491;-66
2022/06/21 04:45:01;;;;;;;7.60;2.47;;;15.50;67.80;;;;;;5021484;28;20040;-66
2022/06/21 04:47:32;;;;;;;6.55;2.83;;;15.50;67.80;;;;;;5021329;28;20521;-66
2022/06/21 04:50:14;;;;;;;8.40;2.58;;;15.50;67.80;;;;;;5022159;28;20077;-66
2022/06/21 04:53:10;;;;;;;7.70;2.92;;;15.60;67.80;;;;;;5009894;28;20097;-66
2022/06/21 04:56:02;;;;;;;8.00;2.70;;;15.60;67.80;;;;;;4993660;28;20076;-66
2022/06/21 04:58:27;;;;;;;9.65;3.38;;;15.70;67.70;;;;;;5016376;28;20418;-66
2022/06/21 05:00:53;;;;;;;7.25;2.80;;;15.70;67.60;;;;;;5043325;28;20031;-66
2022/06/21 05:03:45;;;;;;;6.95;2.78;;;15.70;67.60;;;;;;5037953;28;20025;-66
2022/06/21 05:06:13;;;;;;;4.88;2.10;;;15.80;67.50;;;;;;5045071;28;20036;-66
2022/06/21 05:08:40;;;;;;;7.50;2.70;;;15.90;67.50;;;;;;5050471;28;20347;-65
2022/06/21 05:11:06;;;;;;;5.95;2.55;;;16.00;67.30;;;;;;5054394;28;20025;-66
2022/06/21 05:13:37;;;;;;;7.28;2.50;;;16.70;66.50;;;;;;5043941;28;20037;-66
2022/06/21 05:16:13;;;;;;;4.90;2.15;;;17.60;64.50;;;;;;5046861;28;20119;-66
2022/06/21 05:18:43;;;;;;;4.80;2.05;;;18.00;63.30;;;;;;5049556;28;20041;-66
2022/06/21 05:21:14;;;;;;;7.55;2.30;;;18.20;63.10;;;;;;5046179;28;20446;-66
2022/06/21 05:23:41;;;;;;;5.55;2.08;;;18.30;63.00;;;;;;5045437;28;20036;-66
2022/06/21 05:26:33;;;;;;;7.88;2.50;;;18.40;62.90;;;;;;5055934;28;20074;-66
2022/06/21 05:29:09;;;;;;;5.10;1.90;;;18.40;62.50;;;;;;5046400;28;20031;-66
2022/06/21 05:31:39;;;;;;;6.45;2.00;;;18.40;62.40;;;;;;5042313;28;20014;-67
2022/06/21 05:34:16;;;;;;;7.05;1.92;;;18.40;62.50;;;;;;5041698;28;20029;-67
2022/06/21 05:37:21;;;;;;;6.03;2.17;;;18.30;62.50;;;;;;5055484;28;20108;-67
2022/06/21 05:39:50;;;;;;;6.35;1.90;;;18.40;62.50;;;;;;5013302;28;20045;-67
2022/06/21 05:42:20;;;;;;;6.40;1.85;;;18.40;62.40;;;;;;5026311;28;20053;-67
2022/06/21 05:44:50;;;;;;;5.55;1.95;;;18.50;62.30;;;;;;5018379;28;20022;-68
2022/06/21 05:47:30;;;;;;;5.90;1.92;;;18.50;62.60;;;;;;5007915;28;20131;-67
2022/06/21 05:49:57;;;;;;;5.35;1.95;;;18.50;61.70;;;;;;5013439;28;20378;-67
2022/06/21 05:52:30;;;;;;;8.55;1.95;;;18.50;61.60;;;;;;5029447;28;20056;-67
2022/06/21 05:55:08;;;;;;;5.65;1.50;;;18.60;61.50;;;;;;5007326;28;20037;-68
2022/06/21 05:57:56;;;;;;;6.78;1.77;;;18.70;61.30;;;;;;5032343;28;20033;-67
2022/06/21 06:00:27;;;;;;;5.22;1.65;;;18.80;60.80;;;;;;5019292;28;20045;-67
2022/06/21 06:02:58;;;;;;;7.15;1.45;;;18.90;60.70;;;;;;5024953;28;20114;-68
2022/06/21 06:05:30;;;;;;;5.20;1.45;;;19.00;60.40;;;;;;5022792;28;20045;-67
2022/06/21 06:08:01;;;;;;;4.22;1.38;;;19.00;60.10;;;;;;5011223;28;20033;-67
2022/06/21 06:10:28;;;;;;;5.25;1.90;;;19.20;60.00;;;;;;5015869;28;20045;-68
2022/06/21 06:13:00;;;;;;;5.28;1.45;;;19.30;59.70;;;;;;4999331;28;20055;-67
2022/06/21 06:15:28;;;;;;;6.00;1.55;;;19.40;59.30;;;;;;5027872;28;20114;-68
2022/06/21 06:18:04;;;;;;;6.25;1.88;;;19.50;59.10;;;;;;5046232;28;20028;-67
2022/06/21 06:20:45;;;;;;;4.95;1.50;;;19.60;59.00;;;;;;5049413;28;20038;-68
2022/06/21 06:23:34;;;;;;;5.05;1.60;;;19.70;58.70;;;;;;5048484;28;20117;-68
2022/06/21 06:26:07;;;;;;;4.40;1.30;;;19.80;58.40;;;;;;5045102;28;20094;-68
2022/06/21 06:28:39;;;;;;;6.05;1.95;;;19.90;58.10;;;;;;5028415;28;20036;-68
2022/06/21 06:31:22;;;;;;;7.40;1.65;;;20.00;57.90;;;;;;5048369;28;20020;-67
2022/06/21 06:34:08;;;;;;;2.92;1.13;;;20.10;57.60;;;;;;5045079;28;20111;-68
2022/06/21 06:36:44;;;;;;;3.28;1.15;;;20.20;57.30;;;;;;5044281;28;20123;-67
2022/06/21 06:39:31;;;;;;;6.38;1.83;;;20.30;57.20;;;;;;5040095;28;20028;-68
2022/06/21 06:42:06;;;;;;;4.85;1.60;;;20.50;57.60;;;;;;5051929;28;20036;-67
2022/06/21 06:44:37;;;;;;;6.57;1.73;;;20.50;56.80;;;;;;5045663;28;20602;-68
2022/06/21 06:47:04;;;;;;;6.10;1.52;;;20.60;56.60;;;;;;5040963;28;20319;-68
2022/06/21 06:49:38;;;;;;;5.45;1.45;;;20.80;56.50;;;;;;5041737;28;20090;-68
2022/06/21 06:52:26;;;;;;;6.07;1.80;;;20.80;56.30;;;;;;5052124;28;20036;-68
2022/06/21 06:55:01;;;;;;;5.93;1.70;;;20.90;56.10;;;;;;5041642;28;20032;-68
2022/06/21 06:57:31;;;;;;;6.80;1.60;;;21.00;55.70;;;;;;5051631;28;20037;-68
2022/06/21 06:59:59;;;;;;;9.10;1.97;;;21.00;55.60;;;;;;5042899;28;20123;-68
2022/06/21 07:02:33;;;;;;;6.57;1.88;;;21.10;55.50;;;;;;5045109;28;20478;-67
2022/06/21 07:05:06;;;;;;;5.35;1.95;;;21.10;55.40;;;;;;5045932;28;20514;-69
2022/06/21 07:07:49;;;;;;;7.10;1.80;;;21.20;55.30;;;;;;5045085;28;20029;-68
2022/06/21 07:10:18;;;;;;;6.45;1.73;;;21.30;54.90;;;;;;5047397;28;20075;-68
2022/06/21 07:12:44;;;;;;;10.35;4.22;;;21.40;54.80;;;;;;5054168;28;20025;-69
2022/06/21 07:15:11;;;;;;;12.48;4.55;;;21.40;54.80;;;;;;5044020;28;20038;-68
2022/06/21 07:17:47;;;;;;;10.88;4.00;;;21.50;54.80;;;;;;5037993;28;20049;-68
2022/06/21 07:20:26;;;;;;;12.80;5.30;;;21.50;54.70;;;;;;5036773;28;20034;-69
2022/06/21 07:22:55;;;;;;;12.85;4.97;;;21.60;54.50;;;;;;5036523;28;20032;-69
2022/06/21 07:25:38;;;;;;;14.25;5.50;;;21.70;54.20;;;;;;5046577;28;20147;-69
2022/06/21 07:28:10;;;;;;;13.77;4.60;;;21.70;53.90;;;;;;5042700;28;20037;-68
2022/06/21 07:30:41;;;;;;;13.50;4.00;;;21.70;53.90;;;;;;5042492;28;20041;-68
2022/06/21 07:33:28;;;;;;;7.28;2.80;;;21.80;53.90;;;;;;5043105;28;20075;-68
2022/06/21 07:36:01;;;;;;;6.20;2.17;;;21.90;53.60;;;;;;5036602;28;20030;-68
2022/06/21 07:38:34;;;;;;;5.57;1.70;;;22.00;53.20;;;;;;5047715;28;20036;-70
2022/06/21 07:41:07;;;;;;;5.82;1.55;;;22.10;53.00;;;;;;5054582;28;20033;-70
2022/06/21 07:43:41;;;;;;;5.78;1.80;;;22.10;52.70;;;;;;5043777;28;20056;-69
2022/06/21 07:46:11;;;;;;;4.95;1.67;;;22.20;52.40;;;;;;5055909;28;20025;-69
2022/06/21 07:48:53;;;;;;;5.97;1.67;;;22.30;51.90;;;;;;5049596;28;20083;-69
2022/06/21 07:51:26;;;;;;;6.40;1.70;;;22.40;51.40;;;;;;5037645;28;20446;-68
2022/06/21 07:54:10;;;;;;;5.97;1.50;;;22.60;51.20;;;;;;5040362;28;20104;-68
2022/06/21 07:56:48;;;;;;;4.03;1.55;;;22.80;50.80;;;;;;5040874;28;20033;-69
2022/06/21 07:59:35;;;;;;;5.70;1.60;;;23.00;50.30;;;;;;5051361;28;20063;-70
2022/06/21 08:07:43;;;;;;;4.45;1.60;;;23.30;49.80;;;;;;5050839;28;20112;-70
2022/06/21 08:10:24;;;;;;;5.78;1.77;;;23.00;50.00;;;;;;5043627;28;20064;-71
2022/06/21 08:12:50;;;;;;;5.05;1.45;;;22.50;50.60;;;;;;5055974;28;20021;-69
2022/06/21 08:15:17;;;;;;;7.35;1.95;;;22.30;51.00;;;;;;5049150;28;20486;-69
2022/06/21 08:17:50;;;;;;;5.75;1.60;;;22.30;51.00;;;;;;5055853;28;20461;-69
2022/06/21 08:20:23;;;;;;;4.72;1.70;;;22.40;50.70;;;;;;5050476;28;20030;-67
2022/06/21 08:23:15;;;;;;;3.35;1.40;;;22.50;50.60;;;;;;5044730;28;20029;-68
2022/06/21 08:25:47;;;;;;;3.63;1.60;;;22.60;50.20;;;;;;5047376;28;20048;-68
2022/06/21 08:28:19;;;;;;;5.25;1.38;;;22.70;50.10;;;;;;5056506;28;20052;-67
2022/06/21 08:30:53;;;;;;;4.72;1.55;;;22.80;49.70;;;;;;5047631;28;21486;-64
2022/06/21 08:33:35;;;;;;;5.82;1.40;;;23.10;49.40;;;;;;5047098;28;20140;-66
2022/06/21 08:36:04;;;;;;;4.28;1.40;;;23.30;48.90;;;;;;5043721;28;20032;-64
2022/06/21 08:38:49;;;;;;;3.95;1.40;;;23.50;48.60;;;;;;5043602;28;20470;-64
2022/06/21 08:41:58;;;;;;;4.75;1.55;;;23.70;48.00;;;;;;5050225;28;20033;-64
2022/06/21 08:48:00;;;;;;;5.10;1.50;;;24.10;47.40;;;;;;5034393;28;20045;-64
2022/06/21 08:50:34;;;;;;;4.60;1.25;;;24.30;47.20;;;;;;5033311;28;20065;-64
2022/06/21 08:53:07;;;;;;;3.47;1.33;;;24.50;46.80;;;;;;5034607;28;20081;-64
2022/06/21 08:55:51;;;;;;;5.57;1.35;;;24.50;46.30;;;;;;5031415;28;20045;-64
2022/06/21 08:58:24;;;;;;;5.78;1.50;;;24.50;46.30;;;;;;5031907;28;20703;-66
2022/06/21 09:01:13;;;;;;;5.38;1.75;;;24.40;46.60;;;;;;5031863;28;20037;-64
2022/06/21 09:04:14;;;;;;;4.18;1.45;;;24.40;46.50;;;;;;5033304;28;20044;-64
2022/06/21 09:07:07;;;;;;;4.82;1.80;;;24.60;46.20;;;;;;5026960;28;20032;-64
2022/06/21 09:09:45;;;;;;;4.40;1.40;;;24.80;45.70;;;;;;5033439;28;20030;-64
2022/06/21 09:12:48;;;;;;;6.60;1.98;;;24.90;45.70;;;;;;5021267;28;20049;-63
2022/06/21 09:15:32;;;;;;;3.05;1.42;;;24.80;45.30;;;;;;4974092;28;20519;-64
2022/06/21 09:18:35;;;;;;;4.13;1.23;;;24.70;45.40;;;;;;4976062;28;20126;-63
2022/06/21 09:21:12;;;;;;;5.78;1.35;;;24.80;45.00;;;;;;4958871;28;20058;-64
2022/06/21 09:24:02;;;;;;;3.83;1.35;;;24.90;44.80;;;;;;4975139;28;20081;-64
2022/06/21 09:26:44;;;;;;;6.97;1.70;;;25.00;44.60;;;;;;4972939;28;20053;-64
2022/06/21 09:29:21;;;;;;;4.53;1.55;;;25.00;44.50;;;;;;4979794;28;20440;-64
2022/06/21 09:32:05;;;;;;;3.70;1.25;;;25.00;44.00;;;;;;4985452;28;20049;-64
2022/06/21 09:34:55;;;;;;;3.92;1.38;;;25.10;43.90;;;;;;4991547;28;20042;-64
2022/06/21 09:37:53;;;;;;;4.28;1.48;;;25.30;43.40;;;;;;4986595;28;20117;-64
2022/06/21 09:40:32;;;;;;;5.28;1.73;;;25.50;43.00;;;;;;4984065;28;20043;-64
2022/06/21 09:43:04;;;;;;;4.68;1.10;;;25.50;42.60;;;;;;4994433;28;20030;-64
2022/06/21 09:45:40;;;;;;;3.15;1.02;;;25.40;42.80;;;;;;4990324;28;20042;-64
2022/06/21 09:48:32;;;;;;;3.78;1.52;;;25.20;42.50;;;;;;4984761;28;20034;-64
2022/06/21 09:51:11;;;;;;;4.97;1.48;;;25.10;42.60;;;;;;4995270;28;20038;-64
2022/06/21 09:53:52;;;;;;;4.88;1.65;;;24.90;43.00;;;;;;5053462;28;20045;-64
2022/06/21 09:56:48;;;;;;;5.32;1.85;;;24.90;43.10;;;;;;5049555;28;20036;-65
2022/06/21 09:59:26;;;;;;;3.92;1.38;;;24.80;43.10;;;;;;5038512;28;20060;-63
2022/06/21 10:02:05;;;;;;;6.25;1.42;;;24.70;43.30;;;;;;5038298;28;20091;-63
2022/06/21 10:05:08;;;;;;;5.05;1.70;;;24.60;43.70;;;;;;5051928;28;20048;-63
2022/06/21 10:07:50;;;;;;;3.58;1.27;;;24.50;43.80;;;;;;5050047;28;20028;-63
2022/06/21 10:10:28;;;;;;;2.28;1.13;;;24.50;43.80;;;;;;5053359;28;20044;-62
2022/06/21 10:13:10;;;;;;;4.00;1.15;;;24.50;43.70;;;;;;5053444;28;20036;-62
2022/06/21 10:15:58;;;;;;;6.95;1.50;;;24.30;43.40;;;;;;5053001;28;20135;-63
2022/06/21 10:18:43;;;;;;;3.38;1.02;;;24.20;43.70;;;;;;5055178;28;20037;-62
2022/06/21 10:21:19;;;;;;;2.25;0.98;;;24.30;43.40;;;;;;5051697;28;20045;-62
2022/06/21 10:24:15;;;;;;;1.65;0.80;;;24.40;43.20;;;;;;5054954;28;20033;-63
2022/06/21 10:26:56;;;;;;;2.80;0.80;;;24.50;42.60;;;;;;5052934;28;20036;-63
2022/06/21 10:29:46;;;;;;;2.67;0.90;;;24.80;41.90;;;;;;5044652;28;20037;-63
2022/06/21 10:32:45;;;;;;;2.83;0.90;;;25.10;41.30;;;;;;5039116;28;20493;-62
2022/06/21 10:35:27;;;;;;;3.40;1.00;;;25.20;41.20;;;;;;5034797;28;20323;-63
2022/06/21 10:38:11;;;;;;;4.40;1.27;;;25.30;41.30;;;;;;5050261;28;20453;-63
2022/06/21 10:41:09;;;;;;;4.57;1.00;;;25.40;41.20;;;;;;5042384;28;20112;-63
2022/06/21 10:43:41;;;;;;;3.78;1.10;;;25.50;40.90;;;;;;5051518;28;20082;-63
2022/06/21 10:46:19;;;;;;;4.03;1.33;;;25.60;40.90;;;;;;5048113;28;20435;-63
2022/06/21 10:49:12;;;;;;;4.05;1.25;;;25.70;40.60;;;;;;5042357;28;20041;-63
2022/06/21 10:52:17;;;;;;;4.55;1.20;;;25.70;40.30;;;;;;5041347;28;20049;-63
2022/06/21 10:54:57;;;;;;;3.45;0.98;;;25.90;40.20;;;;;;5031847;28;20143;-62
2022/06/21 10:57:32;;;;;;;3.05;1.08;;;26.00;40.20;;;;;;5015935;28;20394;-62
2022/06/21 11:03:18;;;;;;;3.40;1.02;;;26.40;39.90;;;;;;5021159;28;20076;-62
2022/06/21 11:05:57;;;;;;;3.20;1.17;;;26.50;39.40;;;;;;5026386;28;20080;-62
2022/06/21 11:08:58;;;;;;;3.47;1.10;;;26.40;39.00;;;;;;5022481;28;20034;-63
2022/06/21 11:11:50;;;;;;;2.53;0.93;;;26.40;39.40;;;;;;5022678;28;20121;-63
2022/06/21 11:14:45;;;;;;;3.75;1.20;;;26.30;38.60;;;;;;5017915;28;20074;-63
2022/06/21 11:17:43;;;;;;;3.55;0.90;;;26.30;39.10;;;;;;5032396;28;20040;-63
2022/06/21 11:20:18;;;;;;;2.47;1.10;;;26.30;39.00;;;;;;5029129;28;20494;-63
2022/06/21 11:22:50;;;;;;;4.75;1.00;;;26.10;39.20;;;;;;5027822;28;20109;-64
2022/06/21 11:25:50;;;;;;;2.30;1.10;;;26.00;39.40;;;;;;5024326;28;20042;-64
2022/06/21 11:28:28;;;;;;;3.45;1.13;;;25.70;39.40;;;;;;5021885;28;20041;-63
2022/06/21 11:31:35;;;;;;;3.95;1.30;;;25.50;39.80;;;;;;5030995;28;20124;-63
2022/06/21 11:34:06;;;;;;;3.70;1.17;;;25.30;40.10;;;;;;5048764;28;20029;-63
2022/06/21 11:36:32;;;;;;;2.63;0.70;;;25.10;40.20;;;;;;5043586;28;20017;-63
2022/06/21 11:39:34;;;;;;;5.05;0.98;;;25.10;40.30;;;;;;5035546;28;20033;-63
2022/06/21 11:42:08;;;;;;;2.13;0.75;;;25.00;40.10;;;;;;5051564;28;20048;-63
2022/06/21 11:45:06;;;;;;;4.57;1.30;;;25.00;40.30;;;;;;5054087;28;20104;-64
2022/06/21 11:48:06;;;;;;;3.50;1.08;;;25.10;40.30;;;;;;5049541;28;20028;-64
2022/06/21 11:50:48;;;;;;;2.15;0.70;;;25.40;39.70;;;;;;5053746;28;20040;-64
2022/06/21 11:53:40;;;;;;;1.92;0.70;;;25.70;39.50;;;;;;5053347;28;20036;-64
2022/06/21 11:56:27;;;;;;;3.35;0.90;;;25.80;39.30;;;;;;5046307;28;20083;-64
2022/06/21 11:59:07;;;;;;;3.35;1.08;;;25.90;39.10;;;;;;5037645;28;20040;-64
2022/06/21 12:01:56;;;;;;;2.85;0.82;;;25.80;39.10;;;;;;5049634;28;20037;-64
2022/06/21 12:04:46;;;;;;;1.38;0.60;;;25.70;38.90;;;;;;5056659;28;20036;-64
2022/06/21 12:07:14;;;;;;;1.92;0.73;;;25.70;38.90;;;;;;5042196;28;20029;-64
2022/06/21 12:09:57;;;;;;;1.30;0.70;;;25.50;38.90;;;;;;5042540;28;20022;-64
2022/06/21 12:12:34;;;;;;;3.13;0.90;;;25.50;39.10;;;;;;5049546;28;20123;-64
2022/06/21 12:15:06;;;;;;;3.45;1.13;;;25.50;38.70;;;;;;5056772;28;20045;-64
2022/06/21 12:18:05;;;;;;;0.82;0.65;;;25.50;38.90;;;;;;5050879;28;20025;-64
2022/06/21 12:20:40;;;;;;;3.60;0.90;;;25.50;38.70;;;;;;5053388;28;20468;-64
2022/06/21 12:23:14;;;;;;;3.83;0.73;;;25.50;38.70;;;;;;5045957;28;20040;-64
2022/06/21 12:25:40;;;;;;;1.27;0.60;;;25.50;38.80;;;;;;5055473;28;20029;-64
2022/06/21 12:28:15;;;;;;;1.83;0.90;;;25.30;39.00;;;;;;5046466;28;20017;-64
2022/06/21 12:30:41;;;;;;;3.35;0.90;;;25.30;38.90;;;;;;5052667;28;20056;-63
2022/06/21 12:33:12;;;;;;;3.20;1.00;;;25.20;38.90;;;;;;5052736;28;20446;-64
2022/06/21 12:36:13;;;;;;;3.17;1.20;;;25.10;38.80;;;;;;5052781;28;20017;-63
2022/06/21 12:38:55;;;;;;;1.58;0.95;;;25.10;38.90;;;;;;5055004;28;20438;-64
2022/06/21 12:41:42;;;;;;;2.35;0.80;;;25.10;39.00;;;;;;5028196;28;20446;-64
2022/06/21 12:44:27;;;;;;;2.47;0.90;;;25.10;39.10;;;;;;5049503;28;20440;-64
2022/06/21 12:47:06;;;;;;;3.47;1.00;;;25.10;39.30;;;;;;5048115;28;20029;-64
2022/06/21 12:49:56;;;;;;;4.35;1.25;;;25.10;39.20;;;;;;5055459;28;20083;-63
2022/06/21 12:52:34;;;;;;;3.03;0.82;;;25.00;39.20;;;;;;5046715;28;20403;-64
2022/06/21 12:55:05;;;;;;;1.92;1.13;;;24.90;39.00;;;;;;5047803;28;20037;-63
2022/06/21 12:57:49;;;;;;;;;;;24.90;39.10;;;;;;5041888;28;20108;-63
2022/06/21 13:00:41;;;;;;;2.42;0.80;;;24.90;39.30;;;;;;5052698;28;19916;-63
2022/06/21 13:03:32;;;;;;;3.78;1.00;;;24.90;39.20;;;;;;5053902;28;20079;-63
2022/06/21 13:06:35;;;;;;;4.45;0.98;;;24.90;39.30;;;;;;5056518;28;20028;-63
2022/06/21 13:09:29;;;;;;;2.65;0.85;;;24.90;39.20;;;;;;5054295;28;20369;-63
2022/06/21 13:12:22;;;;;;;3.28;1.17;;;24.80;39.00;;;;;;5056573;28;20028;-63
2022/06/21 13:15:21;;;;;;;1.92;0.73;;;24.70;38.90;;;;;;5056269;28;20049;-63
2022/06/21 13:18:20;;;;;;;1.73;0.90;;;24.70;38.80;;;;;;5056092;28;20033;-63
2022/06/21 13:21:22;;;;;;;2.45;1.08;;;24.60;38.70;;;;;;5056275;28;20112;-63
2022/06/21 13:24:13;;;;;;;1.98;0.70;;;24.60;38.80;;;;;;5050962;28;20132;-64
2022/06/21 13:26:58;;;;;;;;;;;24.50;38.80;;;;;;5046739;28;20435;-63
2022/06/21 13:29:47;;;;;;;1.73;0.68;;;24.50;39.10;;;;;;5051389;28;19919;-63
2022/06/21 13:32:31;;;;;;;1.90;0.65;;;24.50;39.40;;;;;;5052694;28;20029;-63
2022/06/21 13:35:30;;;;;;;2.22;0.70;;;24.40;39.40;;;;;;5047503;28;20366;-64
2022/06/21 13:38:10;;;;;;;2.42;0.73;;;24.40;39.40;;;;;;5038069;28;20025;-63
2022/06/21 13:41:09;;;;;;;2.90;1.15;;;24.40;39.50;;;;;;5043034;28;20083;-64
2022/06/21 13:43:41;;;;;;;3.20;0.93;;;24.40;39.40;;;;;;5050683;28;20084;-64
2022/06/21 13:46:12;;;;;;;2.90;0.77;;;24.50;39.60;;;;;;5052122;28;20033;-64
2022/06/21 13:48:52;;;;;;;4.63;1.40;;;24.50;39.50;;;;;;5047136;28;20037;-64
2022/06/21 13:51:18;;;;;;;4.70;1.17;;;24.50;39.40;;;;;;5053256;28;20041;-64
2022/06/21 13:53:55;;;;;;;3.70;1.10;;;24.40;39.40;;;;;;5048502;28;20056;-64
2022/06/21 13:56:25;;;;;;;2.83;1.00;;;24.50;39.30;;;;;;5039556;28;20082;-64
2022/06/21 13:59:00;;;;;;;2.63;1.13;;;24.40;39.50;;;;;;5041703;28;20075;-64
2022/06/21 14:01:56;;;;;;;2.90;1.00;;;24.40;39.70;;;;;;5039990;28;20045;-64